createdAt,value
2019-01-02T00:00:54.294Z,5.19
2019-01-02T00:01:54.811Z,5.18
2019-01-02T00:02:54.253Z,5.15
2019-01-02T00:03:54.278Z,5.12
2019-01-02T00:04:55.152Z,5.14
2019-01-02T00:05:54.260Z,5.16
2019-01-02T00:06:54.180Z,5.12
2019-01-02T00:07:54.972Z,5.08
2019-01-02T00:08:54.195Z,5.1
2019-01-02T00:09:54.185Z,5.04
2019-01-02T00:10:54.457Z,5.02
2019-01-02T00:11:54.254Z,5.04
2019-01-02T00:12:54.843Z,5.02
2019-01-02T00:13:54.205Z,5.01
2019-01-02T00:14:54.378Z,4.93
2019-01-02T00:15:54.938Z,4.94
2019-01-02T00:16:54.174Z,4.95
2019-01-02T00:17:54.578Z,5
2019-01-02T00:18:54.188Z,4.98
2019-01-02T00:19:54.549Z,4.95
2019-01-02T00:20:54.952Z,4.95
2019-01-02T00:21:54.668Z,4.97
2019-01-02T00:22:54.229Z,4.95
2019-01-02T00:23:54.589Z,4.95
2019-01-02T00:24:54.216Z,4.94
2019-01-02T00:25:54.186Z,5.01
2019-01-02T00:26:54.219Z,5
2019-01-02T00:27:54.144Z,5.01
2019-01-02T00:28:54.842Z,5.01
2019-01-02T00:29:54.210Z,5.02
2019-01-02T00:30:54.334Z,5.01
2019-01-02T00:31:54.641Z,5.02
2019-01-02T00:32:54.419Z,5.04
2019-01-02T00:33:54.955Z,5.05
2019-01-02T00:34:54.422Z,5.1
2019-01-02T00:35:54.339Z,5.11
2019-01-02T00:36:54.960Z,5.11
2019-01-02T00:37:54.298Z,5.1
2019-01-02T00:38:54.140Z,5.15
2019-01-02T00:39:54.130Z,5.16
2019-01-02T00:40:54.294Z,5.15
2019-01-02T00:41:54.854Z,5.14
2019-01-02T00:42:54.116Z,5.12
2019-01-02T00:43:54.140Z,5.08
2019-01-02T00:44:54.811Z,5.08
2019-01-02T00:45:54.134Z,5.04
2019-01-02T00:46:54.848Z,5.02
2019-01-02T00:47:54.954Z,4.95
2019-01-02T00:48:54.238Z,4.94
2019-01-02T00:49:54.781Z,4.95
2019-01-02T00:50:54.970Z,4.94
2019-01-02T00:51:54.317Z,4.93
2019-01-02T00:52:54.467Z,4.94
2019-01-02T00:53:54.257Z,4.95
2019-01-02T00:54:55.087Z,4.97
2019-01-02T00:55:54.095Z,4.91
2019-01-02T00:56:54.500Z,4.9
2019-01-02T00:57:54.136Z,4.88
2019-01-02T00:58:54.293Z,4.91
2019-01-02T00:59:54.854Z,4.9
2019-01-02T01:00:54.140Z,4.87
2019-01-02T01:01:55.590Z,4.87
2019-01-02T01:02:54.124Z,4.9
2019-01-02T01:03:54.112Z,4.87
2019-01-02T01:04:54.621Z,4.88
2019-01-02T01:05:54.196Z,4.88
2019-01-02T01:06:54.738Z,4.9
2019-01-02T01:07:54.110Z,4.88
2019-01-02T01:08:54.218Z,4.88
2019-01-02T01:09:54.767Z,4.87
2019-01-02T01:10:54.154Z,4.86
2019-01-02T01:11:54.757Z,4.86
2019-01-02T01:12:54.106Z,4.86
2019-01-02T01:13:54.130Z,4.86
2019-01-02T01:14:54.649Z,4.88
2019-01-02T01:15:54.085Z,4.84
2019-01-02T01:16:54.622Z,4.83
2019-01-02T01:17:54.208Z,4.81
2019-01-02T01:18:54.157Z,4.83
2019-01-02T01:19:54.930Z,4.81
2019-01-02T01:20:54.145Z,4.8
2019-01-02T01:21:54.120Z,4.79
2019-01-02T01:22:54.547Z,4.81
2019-01-02T01:23:54.089Z,4.77
2019-01-02T01:24:54.091Z,4.81
2019-01-02T01:25:54.494Z,4.8
2019-01-02T01:26:54.069Z,4.81
2019-01-02T01:27:54.098Z,4.81
2019-01-02T01:28:54.231Z,4.83
2019-01-02T01:29:54.199Z,4.83
2019-01-02T01:30:55.251Z,4.83
2019-01-02T01:31:54.521Z,4.84
2019-01-02T01:32:54.135Z,4.86
2019-01-02T01:33:54.626Z,4.83
2019-01-02T01:34:54.150Z,4.83
2019-01-02T01:35:54.144Z,4.83
2019-01-02T01:36:54.936Z,4.83
2019-01-02T01:37:54.911Z,4.83
2019-01-02T01:38:54.285Z,4.79
2019-01-02T01:39:55.008Z,4.77
2019-01-02T01:40:54.400Z,4.79
2019-01-02T01:41:54.202Z,4.79
2019-01-02T01:42:54.651Z,4.77
2019-01-02T01:43:54.151Z,4.79
2019-01-02T01:44:54.130Z,4.84
2019-01-02T01:45:54.913Z,4.86
2019-01-02T01:46:54.440Z,4.88
2019-01-02T01:47:54.110Z,4.9
2019-01-02T01:48:54.066Z,4.9
2019-01-02T01:49:54.048Z,4.91
2019-01-02T01:50:54.758Z,4.88
2019-01-02T01:51:54.165Z,4.91
2019-01-02T01:52:54.364Z,4.9
2019-01-02T01:53:55.088Z,4.86
2019-01-02T01:54:54.103Z,4.9
2019-01-02T01:55:54.302Z,4.95
2019-01-02T01:56:54.923Z,4.94
2019-01-02T01:57:54.551Z,4.94
2019-01-02T01:58:54.073Z,4.93
2019-01-02T01:59:55.002Z,4.93
2019-01-02T02:00:54.338Z,4.97
2019-01-02T02:01:54.629Z,4.98
2019-01-02T02:02:55.136Z,4.97
2019-01-02T02:03:54.749Z,4.97
2019-01-02T02:04:54.257Z,4.95
2019-01-02T02:05:54.811Z,4.94
2019-01-02T02:06:54.127Z,4.9
2019-01-02T02:07:54.179Z,4.87
2019-01-02T02:08:54.425Z,4.86
2019-01-02T02:09:54.177Z,4.79
2019-01-02T02:10:54.513Z,4.81
2019-01-02T02:11:54.275Z,4.8
2019-01-02T02:12:54.765Z,4.77
2019-01-02T02:13:54.577Z,4.74
2019-01-02T02:14:54.101Z,4.74
2019-01-02T02:15:54.328Z,4.74
2019-01-02T02:16:54.958Z,4.73
2019-01-02T02:17:54.274Z,4.76
2019-01-02T02:18:53.990Z,4.74
2019-01-02T02:19:54.405Z,4.73
2019-01-02T02:20:54.476Z,4.7
2019-01-02T02:21:54.245Z,4.69
2019-01-02T02:22:54.706Z,4.67
2019-01-02T02:23:54.393Z,4.69
2019-01-02T02:24:54.104Z,4.69
2019-01-02T02:25:54.068Z,4.69
2019-01-02T02:26:54.128Z,4.69
2019-01-02T02:27:54.892Z,4.65
2019-01-02T02:28:54.019Z,4.62
2019-01-02T02:29:54.362Z,4.62
2019-01-02T02:30:54.863Z,4.6
2019-01-02T02:31:53.982Z,4.62
2019-01-02T02:32:54.352Z,4.6
2019-01-02T02:33:54.723Z,4.6
2019-01-02T02:34:54.103Z,4.57
2019-01-02T02:35:54.950Z,4.57
2019-01-02T02:36:54.747Z,4.56
2019-01-02T02:37:54.236Z,4.57
2019-01-02T02:38:55.049Z,4.55
2019-01-02T02:39:53.991Z,4.53
2019-01-02T02:40:54.216Z,4.52
2019-01-02T02:41:54.886Z,4.48
2019-01-02T02:42:55.210Z,4.43
2019-01-02T02:43:54.641Z,4.4
2019-01-02T02:44:54.796Z,4.4
2019-01-02T02:45:55.302Z,4.39
2019-01-02T02:46:54.016Z,4.39
2019-01-02T02:47:54.613Z,4.38
2019-01-02T02:48:54.754Z,4.39
2019-01-02T02:49:54.064Z,4.33
2019-01-02T02:50:54.738Z,4.3
2019-01-02T02:51:54.041Z,4.32
2019-01-02T02:52:54.197Z,4.3
2019-01-02T02:53:54.702Z,4.32
2019-01-02T02:54:53.986Z,4.29
2019-01-02T02:55:54.458Z,4.26
2019-01-02T02:56:54.612Z,4.26
2019-01-02T02:57:54.121Z,4.26
2019-01-02T02:58:54.634Z,4.22
2019-01-02T02:59:54.060Z,4.22
2019-01-02T03:00:54.558Z,4.26
2019-01-02T03:01:54.713Z,4.24
2019-01-02T03:02:54.145Z,4.24
2019-01-02T03:03:54.692Z,4.24
2019-01-02T03:04:55.098Z,4.21
2019-01-02T03:05:54.025Z,4.25
2019-01-02T03:06:56.150Z,4.22
2019-01-02T03:07:54.777Z,4.21
2019-01-02T03:08:54.296Z,4.21
2019-01-02T03:09:54.730Z,4.12
2019-01-02T03:10:54.765Z,4.17
2019-01-02T03:11:53.959Z,4.14
2019-01-02T03:12:54.684Z,4.07
2019-01-02T03:13:54.596Z,4.07
2019-01-02T03:14:54.302Z,4.05
2019-01-02T03:15:54.842Z,4.04
2019-01-02T03:16:54.909Z,4.02
2019-01-02T03:17:54.023Z,4.01
2019-01-02T03:18:54.957Z,4.04
2019-01-02T03:19:54.714Z,4.07
2019-01-02T03:20:54.203Z,4.05
2019-01-02T03:21:54.805Z,4.05
2019-01-02T03:22:54.996Z,3.98
2019-01-02T03:23:54.223Z,4.01
2019-01-02T03:24:54.897Z,4
2019-01-02T03:25:54.649Z,3.97
2019-01-02T03:26:53.920Z,4
2019-01-02T03:27:54.564Z,3.94
2019-01-02T03:28:54.486Z,3.94
2019-01-02T03:29:53.951Z,3.9
2019-01-02T03:30:54.592Z,3.91
2019-01-02T03:31:54.682Z,3.94
2019-01-02T03:32:54.628Z,3.91
2019-01-02T03:33:53.970Z,3.9
2019-01-02T03:34:53.950Z,3.87
2019-01-02T03:35:54.127Z,3.89
2019-01-02T03:36:53.909Z,3.9
2019-01-02T03:37:54.119Z,3.87
2019-01-02T03:38:53.939Z,3.84
2019-01-02T03:39:54.025Z,3.82
2019-01-02T03:40:53.979Z,3.82
2019-01-02T03:41:54.002Z,3.8
2019-01-02T03:42:53.900Z,3.79
2019-01-02T03:43:54.059Z,3.8
2019-01-02T03:44:53.879Z,3.79
2019-01-02T03:45:54.074Z,3.79
2019-01-02T03:46:54.003Z,3.77
2019-01-02T03:47:54.043Z,3.77
2019-01-02T03:48:54.318Z,3.76
2019-01-02T03:49:54.262Z,3.76
2019-01-02T03:50:54.128Z,3.76
2019-01-02T03:51:54.217Z,3.7
2019-01-02T03:52:54.624Z,3.66
2019-01-02T03:53:53.985Z,3.72
2019-01-02T03:54:54.366Z,3.69
2019-01-02T03:55:54.701Z,3.66
2019-01-02T03:56:53.857Z,3.66
2019-01-02T03:57:54.012Z,3.67
2019-01-02T03:58:54.462Z,3.66
2019-01-02T03:59:54.706Z,3.62
2019-01-02T04:00:53.894Z,3.63
2019-01-02T04:01:54.005Z,3.59
2019-01-02T04:02:53.945Z,3.61
2019-01-02T04:03:53.993Z,3.59
2019-01-02T04:04:53.841Z,3.61
2019-01-02T04:05:54.011Z,3.59
2019-01-02T04:06:53.915Z,3.59
2019-01-02T04:07:54.085Z,3.58
2019-01-02T04:08:54.688Z,3.58
2019-01-02T04:09:54.025Z,3.56
2019-01-02T04:10:53.998Z,3.55
2019-01-02T04:11:53.889Z,3.55
2019-01-02T04:12:54.233Z,3.55
2019-01-02T04:13:54.054Z,3.55
2019-01-02T04:14:54.162Z,3.55
2019-01-02T04:15:54.018Z,3.58
2019-01-02T04:16:53.853Z,3.61
2019-01-02T04:17:54.204Z,3.59
2019-01-02T04:18:54.075Z,3.58
2019-01-02T04:19:53.878Z,3.58
2019-01-02T04:20:54.188Z,3.58
2019-01-02T04:21:54.095Z,3.55
2019-01-02T04:22:53.953Z,3.52
2019-01-02T04:23:54.115Z,3.54
2019-01-02T04:24:54.284Z,3.54
2019-01-02T04:25:54.188Z,3.51
2019-01-02T04:26:54.064Z,3.52
2019-01-02T04:27:54.234Z,3.51
2019-01-02T04:28:53.964Z,3.49
2019-01-02T04:29:53.949Z,3.51
2019-01-02T04:30:53.815Z,3.48
2019-01-02T04:31:53.845Z,3.46
2019-01-02T04:32:53.868Z,3.45
2019-01-02T04:33:54.006Z,3.44
2019-01-02T04:34:53.953Z,3.46
2019-01-02T04:35:53.958Z,3.48
2019-01-02T04:36:53.811Z,3.48
2019-01-02T04:37:53.986Z,3.46
2019-01-02T04:38:53.983Z,3.49
2019-01-02T04:39:54.071Z,3.49
2019-01-02T04:40:54.159Z,3.48
2019-01-02T04:41:53.818Z,3.52
2019-01-02T04:42:53.786Z,3.48
2019-01-02T04:43:53.802Z,3.46
2019-01-02T04:44:53.953Z,3.45
2019-01-02T04:45:53.888Z,3.42
2019-01-02T04:46:53.971Z,3.41
2019-01-02T04:47:54.371Z,3.44
2019-01-02T04:48:53.791Z,3.41
2019-01-02T04:49:54.053Z,3.45
2019-01-02T04:50:54.175Z,3.46
2019-01-02T04:51:54.031Z,3.48
2019-01-02T04:52:54.282Z,3.44
2019-01-02T04:53:54.015Z,3.44
2019-01-02T04:54:54.003Z,3.45
2019-01-02T04:55:53.831Z,3.42
2019-01-02T04:56:53.891Z,3.44
2019-01-02T04:57:54.119Z,3.41
2019-01-02T04:58:53.819Z,3.42
2019-01-02T04:59:53.880Z,3.38
2019-01-02T05:00:54.102Z,3.41
2019-01-02T05:01:54.157Z,3.39
2019-01-02T05:02:54.132Z,3.38
2019-01-02T05:03:54.163Z,3.35
2019-01-02T05:04:54.433Z,3.37
2019-01-02T05:05:54.115Z,3.38
2019-01-02T05:06:54.388Z,3.38
2019-01-02T05:07:54.431Z,3.37
2019-01-02T05:08:54.509Z,3.37
2019-01-02T05:09:54.208Z,3.38
2019-01-02T05:10:53.941Z,3.38
2019-01-02T05:11:54.169Z,3.37
2019-01-02T05:12:54.449Z,3.35
2019-01-02T05:13:54.603Z,3.35
2019-01-02T05:14:54.154Z,3.31
2019-01-02T05:15:54.142Z,3.32
2019-01-02T05:16:54.032Z,3.34
2019-01-02T05:17:54.220Z,3.31
2019-01-02T05:18:53.807Z,3.28
2019-01-02T05:19:53.999Z,3.28
2019-01-02T05:20:53.806Z,3.25
2019-01-02T05:21:54.593Z,3.24
2019-01-02T05:22:54.010Z,3.21
2019-01-02T05:23:53.733Z,3.22
2019-01-02T05:24:54.140Z,3.22
2019-01-02T05:25:53.776Z,3.22
2019-01-02T05:26:53.826Z,3.21
2019-01-02T05:27:54.139Z,3.21
2019-01-02T05:28:54.304Z,3.22
2019-01-02T05:29:53.831Z,3.24
2019-01-02T05:30:53.746Z,3.27
2019-01-02T05:31:54.212Z,3.25
2019-01-02T05:32:53.826Z,3.22
2019-01-02T05:33:54.581Z,3.2
2019-01-02T05:34:54.010Z,3.22
2019-01-02T05:35:53.756Z,3.2
2019-01-02T05:36:53.845Z,3.2
2019-01-02T05:37:54.199Z,3.21
2019-01-02T05:38:53.882Z,3.18
2019-01-02T05:39:53.793Z,3.2
2019-01-02T05:40:54.578Z,3.21
2019-01-02T05:41:53.774Z,3.18
2019-01-02T05:42:54.279Z,3.2
2019-01-02T05:43:53.708Z,3.21
2019-01-02T05:44:54.054Z,3.24
2019-01-02T05:45:54.057Z,3.27
2019-01-02T05:46:54.141Z,3.25
2019-01-02T05:47:54.149Z,3.28
2019-01-02T05:48:53.775Z,3.28
2019-01-02T05:49:53.765Z,3.31
2019-01-02T05:50:54.049Z,3.34
2019-01-02T05:51:53.718Z,3.32
2019-01-02T05:52:53.803Z,3.31
2019-01-02T05:53:53.979Z,3.31
2019-01-02T05:54:54.206Z,3.31
2019-01-02T05:55:54.375Z,3.32
2019-01-02T05:56:53.946Z,3.32
2019-01-02T05:57:54.262Z,3.34
2019-01-02T05:58:54.398Z,3.32
2019-01-02T05:59:53.735Z,3.34
2019-01-02T06:00:53.958Z,3.35
2019-01-02T06:01:54.546Z,3.38
2019-01-02T06:02:54.013Z,3.41
2019-01-02T06:03:53.716Z,3.39
2019-01-02T06:04:53.987Z,3.39
2019-01-02T06:05:53.917Z,3.39
2019-01-02T06:06:53.917Z,3.39
2019-01-02T06:07:53.872Z,3.44
2019-01-02T06:08:53.669Z,3.44
2019-01-02T06:09:53.862Z,3.42
2019-01-02T06:10:53.748Z,3.41
2019-01-02T06:11:53.682Z,3.42
2019-01-02T06:12:53.700Z,3.41
2019-01-02T06:13:53.724Z,3.44
2019-01-02T06:14:53.782Z,3.49
2019-01-02T06:15:53.667Z,3.49
2019-01-02T06:16:53.718Z,3.48
2019-01-02T06:17:53.953Z,3.45
2019-01-02T06:18:53.673Z,3.48
2019-01-02T06:19:53.695Z,3.51
2019-01-02T06:20:53.786Z,3.52
2019-01-02T06:21:53.839Z,3.55
2019-01-02T06:22:54.057Z,3.54
2019-01-02T06:23:53.690Z,3.52
2019-01-02T06:24:53.697Z,3.55
2019-01-02T06:25:53.666Z,3.55
2019-01-02T06:26:53.796Z,3.55
2019-01-02T06:27:53.676Z,3.54
2019-01-02T06:28:53.655Z,3.52
2019-01-02T06:29:54.347Z,3.55
2019-01-02T06:30:54.492Z,3.54
2019-01-02T06:31:53.671Z,3.56
2019-01-02T06:32:53.686Z,3.58
2019-01-02T06:33:53.675Z,3.55
2019-01-02T06:34:53.736Z,3.55
2019-01-02T06:35:53.691Z,3.52
2019-01-02T06:36:53.753Z,3.55
2019-01-02T06:37:53.844Z,3.51
2019-01-02T06:38:53.751Z,3.49
2019-01-02T06:39:53.763Z,3.49
2019-01-02T06:40:53.793Z,3.49
2019-01-02T06:41:54.488Z,3.54
2019-01-02T06:42:53.862Z,3.52
2019-01-02T06:43:53.936Z,3.46
2019-01-02T06:44:53.960Z,3.49
2019-01-02T06:45:53.799Z,3.46
2019-01-02T06:46:53.733Z,3.51
2019-01-02T06:47:55.587Z,3.51
2019-01-02T06:48:53.750Z,3.51
2019-01-02T06:49:53.724Z,3.52
2019-01-02T06:50:53.658Z,3.48
2019-01-02T06:51:53.970Z,3.46
2019-01-02T06:52:53.931Z,3.51
2019-01-02T06:53:53.675Z,3.48
2019-01-02T06:54:53.612Z,3.52
2019-01-02T06:55:53.656Z,3.48
2019-01-02T06:56:54.075Z,3.51
2019-01-02T06:57:53.953Z,3.51
2019-01-02T06:58:53.856Z,3.51
2019-01-02T06:59:53.633Z,3.51
2019-01-02T07:00:53.692Z,3.49
2019-01-02T07:01:54.341Z,3.48
2019-01-02T07:02:53.786Z,3.51
2019-01-02T07:03:54.118Z,3.52
2019-01-02T07:04:54.473Z,3.51
2019-01-02T07:05:53.977Z,3.52
2019-01-02T07:06:53.613Z,3.52
2019-01-02T07:07:53.684Z,3.54
2019-01-02T07:08:53.794Z,3.54
2019-01-02T07:09:53.996Z,3.52
2019-01-02T07:10:53.662Z,3.55
2019-01-02T07:11:53.972Z,3.56
2019-01-02T07:12:54.446Z,3.56
2019-01-02T07:13:53.616Z,3.54
2019-01-02T07:14:53.583Z,3.54
2019-01-02T07:15:54.080Z,3.55
2019-01-02T07:16:54.053Z,3.56
2019-01-02T07:17:54.308Z,3.55
2019-01-02T07:18:54.145Z,3.56
2019-01-02T07:19:53.625Z,3.56
2019-01-02T07:20:54.037Z,3.58
2019-01-02T07:21:53.749Z,3.59
2019-01-02T07:22:53.678Z,3.58
2019-01-02T07:23:53.780Z,3.56
2019-01-02T07:24:54.092Z,3.58
2019-01-02T07:25:54.446Z,3.61
2019-01-02T07:26:54.067Z,3.59
2019-01-02T07:27:53.590Z,3.58
2019-01-02T07:28:53.801Z,3.55
2019-01-02T07:29:53.675Z,3.58
2019-01-02T07:30:53.784Z,3.62
2019-01-02T07:31:53.839Z,3.59
2019-01-02T07:32:54.460Z,3.56
2019-01-02T07:33:54.086Z,3.62
2019-01-02T07:34:53.665Z,3.59
2019-01-02T07:35:54.036Z,3.59
2019-01-02T07:36:53.846Z,3.58
2019-01-02T07:37:53.880Z,3.59
2019-01-02T07:38:53.688Z,3.61
2019-01-02T07:39:53.558Z,3.59
2019-01-02T07:40:53.668Z,3.58
2019-01-02T07:41:53.683Z,3.58
2019-01-02T07:42:53.986Z,3.61
2019-01-02T07:43:53.560Z,3.61
2019-01-02T07:44:53.768Z,3.61
2019-01-02T07:45:53.828Z,3.59
2019-01-02T07:46:54.323Z,3.61
2019-01-02T07:47:54.149Z,3.61
2019-01-02T07:48:53.647Z,3.61
2019-01-02T07:49:53.680Z,3.59
2019-01-02T07:50:53.540Z,3.61
2019-01-02T07:51:53.748Z,3.59
2019-01-02T07:52:53.621Z,3.61
2019-01-02T07:53:53.446Z,3.59
2019-01-02T07:54:53.635Z,3.59
2019-01-02T07:55:53.544Z,3.62
2019-01-02T07:56:53.643Z,3.62
2019-01-02T07:57:53.530Z,3.61
2019-01-02T07:58:53.613Z,3.62
2019-01-02T07:59:53.608Z,3.63
2019-01-02T08:00:54.176Z,3.62
2019-01-02T08:01:53.620Z,3.63
2019-01-02T08:02:53.616Z,3.61
2019-01-02T08:03:53.559Z,3.62
2019-01-02T08:04:53.693Z,3.65
2019-01-02T08:05:53.606Z,3.65
2019-01-02T08:06:53.540Z,3.66
2019-01-02T08:07:53.684Z,3.66
2019-01-02T08:08:53.596Z,3.7
2019-01-02T08:09:54.071Z,3.66
2019-01-02T08:10:53.823Z,3.66
2019-01-02T08:11:54.092Z,3.67
2019-01-02T08:12:53.683Z,3.66
2019-01-02T08:13:53.743Z,3.66
2019-01-02T08:14:53.672Z,3.65
2019-01-02T08:15:54.041Z,3.67
2019-01-02T08:16:54.033Z,3.69
2019-01-02T08:17:54.052Z,3.69
2019-01-02T08:18:53.790Z,3.67
2019-01-02T08:19:54.386Z,3.7
2019-01-02T08:20:53.839Z,3.7
2019-01-02T08:21:53.520Z,3.72
2019-01-02T08:22:54.250Z,3.7
2019-01-02T08:23:54.335Z,3.7
2019-01-02T08:24:54.412Z,3.7
2019-01-02T08:25:53.755Z,3.7
2019-01-02T08:26:53.882Z,3.72
2019-01-02T08:27:54.034Z,3.72
2019-01-02T08:28:54.345Z,3.72
2019-01-02T08:29:53.914Z,3.73
2019-01-02T08:30:54.004Z,3.76
2019-01-02T08:31:53.615Z,3.74
2019-01-02T08:32:53.650Z,3.76
2019-01-02T08:33:53.584Z,3.76
2019-01-02T08:34:53.592Z,3.76
2019-01-02T08:35:53.889Z,3.77
2019-01-02T08:36:53.676Z,3.77
2019-01-02T08:37:54.321Z,3.77
2019-01-02T08:38:53.545Z,3.8
2019-01-02T08:39:53.754Z,3.8
2019-01-02T08:40:53.835Z,3.82
2019-01-02T08:41:54.041Z,3.79
2019-01-02T08:42:53.997Z,3.8
2019-01-02T08:43:54.207Z,3.82
2019-01-02T08:44:53.737Z,3.82
2019-01-02T08:45:54.345Z,3.83
2019-01-02T08:46:53.497Z,3.86
2019-01-02T08:47:53.486Z,3.84
2019-01-02T08:48:54.081Z,3.84
2019-01-02T08:49:54.079Z,3.9
2019-01-02T08:50:53.579Z,3.9
2019-01-02T08:51:53.499Z,3.89
2019-01-02T08:52:53.484Z,3.9
2019-01-02T08:53:53.524Z,3.9
2019-01-02T08:54:53.878Z,3.91
2019-01-02T08:55:53.493Z,3.91
2019-01-02T08:56:53.512Z,3.91
2019-01-02T08:57:53.913Z,3.94
2019-01-02T08:58:53.550Z,3.9
2019-01-02T08:59:53.467Z,3.93
2019-01-02T09:00:53.969Z,3.93
2019-01-02T09:01:53.462Z,3.93
2019-01-02T09:02:53.483Z,3.93
2019-01-02T09:03:53.656Z,3.9
2019-01-02T09:04:53.910Z,3.93
2019-01-02T09:05:54.032Z,3.91
2019-01-02T09:06:53.668Z,3.9
2019-01-02T09:07:53.812Z,3.87
2019-01-02T09:08:53.461Z,3.89
2019-01-02T09:09:53.730Z,3.87
2019-01-02T09:10:53.440Z,3.84
2019-01-02T09:11:53.529Z,3.83
2019-01-02T09:12:53.869Z,3.84
2019-01-02T09:13:53.447Z,3.84
2019-01-02T09:14:53.898Z,3.84
2019-01-02T09:15:53.650Z,3.84
2019-01-02T09:16:53.899Z,3.83
2019-01-02T09:17:53.439Z,3.84
2019-01-02T09:18:53.908Z,3.82
2019-01-02T09:19:53.803Z,3.8
2019-01-02T09:20:53.701Z,3.83
2019-01-02T09:21:53.598Z,3.82
2019-01-02T09:22:54.266Z,3.8
2019-01-02T09:23:53.630Z,3.8
2019-01-02T09:24:53.673Z,3.83
2019-01-02T09:25:53.811Z,3.79
2019-01-02T09:26:53.586Z,3.83
2019-01-02T09:27:53.640Z,3.82
2019-01-02T09:28:53.764Z,3.82
2019-01-02T09:29:53.679Z,3.83
2019-01-02T09:30:53.589Z,3.8
2019-01-02T09:31:53.400Z,3.77
2019-01-02T09:32:53.555Z,3.79
2019-01-02T09:33:53.507Z,3.79
2019-01-02T09:34:53.553Z,3.79
2019-01-02T09:35:53.853Z,3.8
2019-01-02T09:36:53.474Z,3.82
2019-01-02T09:37:54.452Z,3.82
2019-01-02T09:38:53.409Z,3.82
2019-01-02T09:39:53.596Z,3.82
2019-01-02T09:40:53.650Z,3.82
2019-01-02T09:41:53.397Z,3.84
2019-01-02T09:42:53.493Z,3.83
2019-01-02T09:43:53.616Z,3.84
2019-01-02T09:44:53.460Z,3.84
2019-01-02T09:45:53.408Z,3.86
2019-01-02T09:46:54.079Z,3.9
2019-01-02T09:47:53.495Z,3.89
2019-01-02T09:48:53.452Z,3.89
2019-01-02T09:49:53.428Z,3.9
2019-01-02T09:50:53.530Z,3.91
2019-01-02T09:51:53.991Z,3.93
2019-01-02T09:52:53.443Z,3.94
2019-01-02T09:53:53.480Z,3.96
2019-01-02T09:54:53.578Z,3.94
2019-01-02T09:55:53.464Z,3.96
2019-01-02T09:56:53.929Z,3.98
2019-01-02T09:57:53.575Z,3.97
2019-01-02T09:58:53.429Z,3.98
2019-01-02T09:59:53.520Z,3.98
2019-01-02T10:00:53.594Z,4
2019-01-02T10:01:54.093Z,4.01
2019-01-02T10:02:53.566Z,4.02
2019-01-02T10:03:54.493Z,4.04
2019-01-02T10:04:53.953Z,4.02
2019-01-02T10:05:53.704Z,4.1
2019-01-02T10:06:53.663Z,4.22
2019-01-02T10:07:53.590Z,4.36
2019-01-02T10:08:53.792Z,4.39
2019-01-02T10:09:53.757Z,4.46
2019-01-02T10:10:53.715Z,4.48
2019-01-02T10:11:53.418Z,4.52
2019-01-02T10:12:53.641Z,4.55
2019-01-02T10:13:53.398Z,4.57
2019-01-02T10:14:53.671Z,4.63
2019-01-02T10:15:53.676Z,4.65
2019-01-02T10:16:53.584Z,4.69
2019-01-02T10:17:54.642Z,4.66
2019-01-02T10:18:53.874Z,4.72
2019-01-02T10:19:53.774Z,4.73
2019-01-02T10:20:53.445Z,4.74
2019-01-02T10:21:53.505Z,4.74
2019-01-02T10:22:53.560Z,4.74
2019-01-02T10:23:53.460Z,4.76
2019-01-02T10:24:53.529Z,4.77
2019-01-02T10:25:53.756Z,4.77
2019-01-02T10:26:53.726Z,4.81
2019-01-02T10:27:54.181Z,4.83
2019-01-02T10:28:53.420Z,4.87
2019-01-02T10:29:53.571Z,4.87
2019-01-02T10:30:53.597Z,4.91
2019-01-02T10:31:53.475Z,4.94
2019-01-02T10:32:53.548Z,4.94
2019-01-02T10:33:53.592Z,4.98
2019-01-02T10:34:54.178Z,5
2019-01-02T10:35:53.581Z,4.97
2019-01-02T10:36:53.393Z,4.98
2019-01-02T10:37:55.707Z,5.02
2019-01-02T10:38:53.795Z,5.02
2019-01-02T10:39:53.927Z,5.07
2019-01-02T10:40:53.474Z,5.05
2019-01-02T10:41:53.726Z,5.08
2019-01-02T10:42:53.597Z,5.07
2019-01-02T10:43:53.450Z,5.1
2019-01-02T10:44:53.424Z,5.14
2019-01-02T10:45:53.339Z,5.08
2019-01-02T10:46:53.509Z,5.11
2019-01-02T10:47:53.666Z,5.15
2019-01-02T10:48:53.597Z,5.15
2019-01-02T10:49:53.751Z,5.18
2019-01-02T10:50:53.478Z,5.21
2019-01-02T10:51:53.751Z,5.22
2019-01-02T10:52:53.518Z,5.22
2019-01-02T10:53:54.145Z,5.23
2019-01-02T10:54:53.599Z,5.22
2019-01-02T10:55:53.464Z,5.23
2019-01-02T10:56:55.962Z,5.19
2019-01-02T10:57:53.536Z,5.22
2019-01-02T10:58:54.161Z,5.22
2019-01-02T10:59:53.374Z,5.23
2019-01-02T11:00:53.481Z,5.25
2019-01-02T11:01:54.153Z,5.3
2019-01-02T11:02:53.558Z,5.36
2019-01-02T11:03:53.605Z,5.39
2019-01-02T11:04:53.454Z,5.46
2019-01-02T11:05:53.539Z,5.5
2019-01-02T11:06:53.319Z,5.51
2019-01-02T11:07:53.555Z,5.59
2019-01-02T11:08:53.459Z,5.64
2019-01-02T11:09:53.751Z,5.66
2019-01-02T11:10:53.341Z,5.66
2019-01-02T11:11:53.270Z,5.69
2019-01-02T11:12:53.414Z,5.75
2019-01-02T11:13:53.366Z,5.81
2019-01-02T11:14:53.350Z,5.85
2019-01-02T11:15:53.406Z,5.88
2019-01-02T11:16:53.302Z,5.9
2019-01-02T11:17:53.305Z,5.94
2019-01-02T11:18:54.036Z,5.92
2019-01-02T11:19:53.618Z,5.92
2019-01-02T11:20:53.564Z,5.9
2019-01-02T11:21:53.369Z,5.87
2019-01-02T11:22:53.307Z,5.88
2019-01-02T11:23:53.196Z,5.88
2019-01-02T11:24:53.458Z,5.9
2019-01-02T11:25:53.393Z,5.88
2019-01-02T11:26:53.305Z,5.91
2019-01-02T11:27:53.366Z,5.92
2019-01-02T11:28:53.363Z,5.91
2019-01-02T11:29:53.422Z,5.88
2019-01-02T11:30:53.278Z,5.87
2019-01-02T11:31:53.427Z,5.87
2019-01-02T11:32:53.353Z,5.85
2019-01-02T11:33:53.567Z,5.85
2019-01-02T11:34:53.479Z,5.88
2019-01-02T11:35:53.296Z,5.9
2019-01-02T11:36:53.372Z,5.84
2019-01-02T11:37:53.321Z,5.85
2019-01-02T11:38:53.493Z,5.84
2019-01-02T11:39:53.565Z,5.83
2019-01-02T11:40:53.456Z,5.83
2019-01-02T11:41:54.562Z,5.81
2019-01-02T11:42:53.456Z,5.8
2019-01-02T11:43:53.649Z,5.77
2019-01-02T11:44:53.379Z,5.75
2019-01-02T11:45:53.368Z,5.74
2019-01-02T11:46:53.548Z,5.74
2019-01-02T11:47:53.356Z,5.7
2019-01-02T11:48:53.361Z,5.67
2019-01-02T11:49:53.342Z,5.67
2019-01-02T11:50:54.070Z,5.63
2019-01-02T11:51:53.323Z,5.63
2019-01-02T11:52:53.410Z,5.57
2019-01-02T11:53:53.339Z,5.5
2019-01-02T11:54:54.463Z,5.53
2019-01-02T11:55:53.272Z,5.5
2019-01-02T11:56:53.678Z,5.49
2019-01-02T11:57:53.390Z,5.45
2019-01-02T11:58:53.346Z,5.35
2019-01-02T11:59:53.442Z,5.33
2019-01-02T12:00:53.583Z,5.32
2019-01-02T12:01:53.266Z,5.28
2019-01-02T12:02:53.620Z,5.28
2019-01-02T12:03:53.661Z,5.23
2019-01-02T12:04:53.344Z,5.23
2019-01-02T12:05:53.277Z,5.21
2019-01-02T12:06:53.421Z,5.22
2019-01-02T12:07:53.467Z,5.22
2019-01-02T12:08:53.402Z,5.19
2019-01-02T12:09:53.219Z,5.16
2019-01-02T12:10:53.251Z,5.16
2019-01-02T12:11:53.223Z,5.19
2019-01-02T12:12:53.213Z,5.21
2019-01-02T12:13:53.497Z,5.19
2019-01-02T12:14:53.364Z,5.21
2019-01-02T12:15:53.498Z,5.19
2019-01-02T12:16:53.322Z,5.19
2019-01-02T12:17:53.526Z,5.16
2019-01-02T12:18:53.996Z,5.15
2019-01-02T12:19:53.503Z,5.18
2019-01-02T12:20:54.278Z,5.16
2019-01-02T12:21:53.283Z,5.18
2019-01-02T12:22:53.216Z,5.21
2019-01-02T12:23:53.396Z,5.25
2019-01-02T12:24:53.725Z,5.22
2019-01-02T12:25:53.919Z,5.3
2019-01-02T12:26:53.666Z,5.35
2019-01-02T12:27:53.445Z,5.36
2019-01-02T12:28:53.653Z,5.39
2019-01-02T12:29:53.588Z,5.42
2019-01-02T12:30:53.484Z,5.45
2019-01-02T12:31:53.249Z,5.45
2019-01-02T12:32:53.369Z,5.45
2019-01-02T12:33:53.632Z,5.51
2019-01-02T12:34:53.342Z,5.53
2019-01-02T12:35:53.783Z,5.62
2019-01-02T12:36:53.561Z,5.62
2019-01-02T12:37:53.683Z,5.67
2019-01-02T12:38:53.258Z,5.71
2019-01-02T12:39:53.314Z,5.75
2019-01-02T12:40:53.373Z,5.8
2019-01-02T12:41:53.434Z,5.83
2019-01-02T12:42:53.528Z,5.85
2019-01-02T12:43:53.351Z,5.88
2019-01-02T12:44:53.410Z,5.84
2019-01-02T12:45:53.774Z,5.78
2019-01-02T12:46:54.031Z,5.78
2019-01-02T12:47:53.504Z,5.81
2019-01-02T12:48:53.827Z,5.84
2019-01-02T12:49:53.189Z,5.84
2019-01-02T12:50:53.177Z,5.83
2019-01-02T12:51:53.643Z,5.84
2019-01-02T12:52:53.329Z,5.84
2019-01-02T12:53:53.248Z,5.87
2019-01-02T12:54:53.585Z,5.85
2019-01-02T12:55:53.271Z,5.9
2019-01-02T12:56:53.252Z,5.9
2019-01-02T12:57:53.190Z,5.9
2019-01-02T12:58:53.709Z,5.92
2019-01-02T12:59:53.479Z,5.88
2019-01-02T13:00:53.248Z,5.88
2019-01-02T13:01:53.159Z,5.85
2019-01-02T13:02:53.286Z,5.9
2019-01-02T13:03:53.178Z,5.87
2019-01-02T13:04:53.398Z,5.84
2019-01-02T13:05:53.281Z,5.77
2019-01-02T13:06:53.576Z,5.71
2019-01-02T13:07:53.728Z,5.69
2019-01-02T13:08:53.554Z,5.67
2019-01-02T13:09:53.171Z,5.66
2019-01-02T13:10:53.409Z,5.69
2019-01-02T13:11:53.496Z,5.64
2019-01-02T13:12:56.666Z,5.73
2019-01-02T13:13:53.676Z,5.74
2019-01-02T13:14:54.397Z,5.7
2019-01-02T13:15:54.116Z,5.69
2019-01-02T13:16:53.148Z,5.7
2019-01-02T13:17:53.360Z,5.7
2019-01-02T13:18:53.125Z,5.67
2019-01-02T13:19:52.919Z,5.64
2019-01-02T13:20:53.141Z,5.64
2019-01-02T13:21:53.133Z,5.64